createdAt,value
2018-05-07T00:01:12.718Z,6.83
2018-05-07T00:03:40.140Z,5.20
2018-05-07T00:06:07.674Z,6.63
2018-05-07T00:08:35.959Z,5.07
2018-05-07T00:11:03.481Z,5.33
2018-05-07T00:13:30.981Z,8.20
2018-05-07T00:15:58.523Z,7.70
2018-05-07T00:18:26.791Z,5.27
2018-05-07T00:20:55.091Z,5.33
2018-05-07T00:23:22.591Z,6.43
2018-05-07T00:25:50.097Z,6.90
2018-05-07T00:28:18.533Z,7.50
2018-05-07T00:30:46.794Z,5.90
2018-05-07T00:33:14.365Z,6.90
2018-05-07T00:35:41.858Z,6.30
2018-05-07T00:38:10.165Z,7.43
2018-05-07T00:40:37.716Z,7.47
2018-05-07T00:43:05.284Z,6.30
2018-05-07T00:45:32.817Z,7.53
2018-05-07T00:48:01.091Z,5.53
2018-05-07T00:50:29.436Z,5.20
2018-05-07T00:52:57.628Z,7.60
2018-05-07T00:55:25.917Z,7.70
2018-05-07T00:57:54.208Z,5.93
2018-05-07T01:00:21.747Z,7.00
2018-05-07T01:02:51.276Z,5.53
2018-05-07T01:05:18.794Z,6.90
2018-05-07T01:07:46.390Z,8.20
2018-05-07T01:10:13.930Z,8.00
2018-05-07T01:12:42.248Z,6.63
2018-05-07T01:15:09.761Z,8.90
2018-05-07T01:17:38.032Z,7.63
2018-05-07T01:20:05.555Z,7.47
2018-05-07T01:22:33.076Z,8.07
2018-05-07T01:25:01.345Z,6.90
2018-05-07T01:27:29.637Z,7.03
2018-05-07T01:29:57.138Z,8.37
2018-05-07T01:32:24.674Z,7.07
2018-05-07T01:34:52.189Z,5.80
2018-05-07T01:37:20.476Z,8.37
2018-05-07T01:39:47.968Z,6.97
2018-05-07T01:42:16.209Z,6.50
2018-05-07T01:44:43.744Z,9.03
2018-05-07T01:47:12.032Z,8.20
2018-05-07T01:49:40.295Z,8.33
2018-05-07T01:52:07.800Z,7.10
2018-05-07T01:54:35.314Z,8.63
2018-05-07T01:57:02.811Z,8.10
2018-05-07T01:59:30.397Z,8.80
2018-05-07T02:01:57.937Z,7.87
2018-05-07T02:04:25.489Z,8.10
2018-05-07T02:06:53.016Z,7.33
2018-05-07T02:09:21.286Z,6.77
2018-05-07T02:11:49.574Z,6.27
2018-05-07T02:14:17.883Z,6.73
2018-05-07T02:16:46.157Z,7.57
2018-05-07T02:19:13.692Z,7.17
2018-05-07T02:21:42.747Z,6.23
2018-05-07T02:24:10.256Z,8.73
2018-05-07T02:26:37.770Z,9.77
2018-05-07T02:29:06.009Z,10.93
2018-05-07T02:31:33.527Z,7.47
2018-05-07T02:34:01.814Z,8.07
2018-05-07T02:36:30.093Z,10.73
2018-05-07T02:38:59.160Z,10.03
2018-05-07T02:41:26.636Z,6.90
2018-05-07T02:43:54.921Z,7.97
2018-05-07T02:46:22.450Z,8.30
2018-05-07T02:48:50.025Z,8.10
2018-05-07T02:51:18.349Z,8.40
2018-05-07T02:53:45.902Z,9.10
2018-05-07T02:56:13.456Z,9.23
2018-05-07T02:58:40.996Z,8.00
2018-05-07T03:01:10.182Z,6.77
2018-05-07T03:03:37.695Z,11.10
2018-05-07T03:06:05.204Z,7.47
2018-05-07T03:08:32.732Z,8.77
2018-05-07T03:11:00.225Z,8.67
2018-05-07T03:13:27.743Z,9.13
2018-05-07T03:15:55.322Z,8.60
2018-05-07T03:18:22.913Z,7.97
2018-05-07T03:20:50.490Z,8.73
2018-05-07T03:23:18.067Z,7.83
2018-05-07T03:25:45.619Z,7.67
2018-05-07T03:28:13.176Z,8.73
2018-05-07T03:30:40.708Z,8.20
2018-05-07T03:33:08.776Z,9.97
2018-05-07T03:35:37.119Z,11.33
2018-05-07T03:38:04.620Z,9.87
2018-05-07T03:40:32.122Z,7.17
2018-05-07T03:42:59.679Z,8.27
2018-05-07T03:45:27.749Z,8.67
2018-05-07T03:47:55.330Z,8.60
2018-05-07T03:50:22.909Z,8.83
2018-05-07T03:52:50.485Z,11.83
2018-05-07T03:55:18.315Z,11.97
2018-05-07T03:57:46.801Z,10.53
2018-05-07T04:00:14.365Z,7.73
2018-05-07T04:02:42.292Z,9.07
2018-05-07T04:05:09.904Z,8.33
2018-05-07T04:07:37.482Z,9.50
2018-05-07T04:10:05.051Z,10.77
2018-05-07T04:12:32.580Z,7.07
2018-05-07T04:15:00.146Z,8.40
2018-05-07T04:17:40.522Z,7.40
2018-05-07T04:20:20.023Z,6.63
2018-05-07T04:23:00.175Z,9.57
2018-05-07T04:25:30.054Z,7.57
2018-05-07T04:27:57.616Z,7.77
2018-05-07T04:30:25.171Z,7.17
2018-05-07T04:32:52.704Z,8.47
2018-05-07T04:35:20.246Z,8.17
2018-05-07T04:37:47.775Z,9.70
2018-05-07T04:40:16.105Z,7.97
2018-05-07T04:42:43.655Z,6.57
2018-05-07T04:45:11.168Z,8.07
2018-05-07T04:47:38.720Z,6.60
2018-05-07T04:50:06.250Z,7.23
2018-05-07T04:52:33.789Z,6.70
2018-05-07T04:55:01.346Z,7.10
2018-05-07T04:57:29.664Z,7.53
2018-05-07T04:59:57.211Z,5.67
2018-05-07T05:02:24.733Z,5.67
2018-05-07T05:04:52.260Z,5.47
2018-05-07T05:07:20.564Z,7.50
2018-05-07T05:09:48.111Z,6.83
2018-05-07T05:12:17.125Z,6.53
2018-05-07T05:14:44.636Z,5.53
2018-05-07T05:17:13.627Z,6.70
2018-05-07T05:19:41.202Z,7.00
2018-05-07T05:22:08.763Z,8.10
2018-05-07T05:24:37.689Z,5.13
2018-05-07T05:27:05.234Z,8.70
2018-05-07T05:29:32.881Z,10.97
2018-05-07T05:32:01.185Z,6.20
2018-05-07T05:34:28.736Z,4.93
2018-05-07T05:36:56.286Z,5.07
2018-05-07T05:39:24.560Z,7.83
2018-05-07T05:41:52.840Z,7.70
2018-05-07T05:44:21.682Z,5.53
2018-05-07T05:46:53.489Z,5.40
2018-05-07T05:49:21.039Z,4.40
2018-05-07T05:51:50.464Z,5.07
2018-05-07T05:54:18.022Z,5.60
2018-05-07T05:56:46.190Z,5.00
2018-05-07T05:59:13.720Z,5.03
2018-05-07T06:01:42.079Z,6.77
2018-05-07T06:04:09.712Z,5.67
2018-05-07T06:06:37.287Z,7.13
2018-05-07T06:09:05.732Z,5.47
2018-05-07T06:11:33.296Z,5.53
2018-05-07T06:14:00.832Z,8.90
2018-05-07T06:16:29.133Z,7.77
2018-05-07T06:18:56.714Z,8.67
2018-05-07T06:21:24.267Z,7.13
2018-05-07T06:23:51.792Z,7.70
2018-05-07T06:26:19.360Z,6.70
2018-05-07T06:28:46.917Z,9.47
2018-05-07T06:31:14.501Z,5.07
2018-05-07T06:33:42.035Z,4.30
2018-05-07T06:36:09.881Z,5.73
2018-05-07T06:38:58.902Z,6.83
2018-05-07T06:41:27.309Z,4.73
2018-05-07T06:43:54.904Z,7.20
2018-05-07T06:46:22.466Z,7.63
2018-05-07T06:48:50.021Z,5.73
2018-05-07T06:51:17.793Z,6.50
2018-05-07T06:53:45.396Z,7.03
2018-05-07T06:56:12.970Z,7.20
2018-05-07T06:58:40.595Z,4.93
2018-05-07T07:01:08.186Z,4.67
2018-05-07T07:03:35.799Z,4.53
2018-05-07T07:06:03.381Z,5.00
2018-05-07T07:08:31.499Z,5.93
2018-05-07T07:10:58.872Z,6.50
2018-05-07T07:13:26.584Z,3.90
2018-05-07T07:15:54.128Z,5.57
2018-05-07T07:18:22.357Z,3.93
2018-05-07T07:20:49.877Z,7.03
2018-05-07T07:23:17.502Z,5.67
2018-05-07T07:25:46.069Z,4.90
2018-05-07T07:28:13.830Z,3.73
2018-05-07T07:30:45.324Z,4.10
2018-05-07T07:33:12.896Z,5.97
2018-05-07T07:35:41.531Z,8.53
2018-05-07T07:38:14.208Z,7.07
2018-05-07T07:40:42.553Z,3.90
2018-05-07T07:43:10.995Z,7.73
2018-05-07T07:45:39.240Z,5.37
2018-05-07T07:48:08.219Z,4.87
2018-05-07T07:50:42.902Z,5.47
2018-05-07T07:53:12.285Z,4.87
2018-05-07T07:55:41.015Z,4.13
2018-05-07T07:58:09.370Z,5.00
2018-05-07T08:00:49.133Z,4.50
2018-05-07T08:03:37.072Z,4.73
2018-05-07T08:06:07.364Z,3.97
2018-05-07T08:08:36.538Z,3.60
2018-05-07T08:11:04.603Z,5.43
2018-05-07T08:13:32.998Z,5.43
2018-05-07T08:16:06.719Z,4.33
2018-05-07T08:18:34.417Z,5.50
2018-05-07T08:21:02.755Z,4.33
2018-05-07T08:23:31.702Z,4.63
2018-05-07T08:25:59.288Z,6.03
2018-05-07T08:28:27.652Z,7.67
2018-05-07T08:30:56.620Z,6.57
2018-05-07T08:33:25.888Z,5.20
2018-05-07T08:35:54.069Z,5.80
2018-05-07T08:38:23.668Z,7.87
2018-05-07T08:40:51.392Z,7.47
2018-05-07T08:43:19.015Z,5.03
2018-05-07T08:45:51.781Z,7.37
2018-05-07T08:48:25.080Z,3.23
2018-05-07T08:51:03.819Z,4.03
2018-05-07T08:53:34.884Z,2.90
2018-05-07T08:56:04.183Z,4.63
2018-05-07T08:58:34.260Z,5.97
2018-05-07T09:01:02.366Z,5.17
2018-05-07T09:03:38.402Z,6.80
2018-05-07T09:08:44.127Z,5.17
2018-05-07T09:11:12.309Z,4.07
2018-05-07T09:13:40.084Z,4.43
2018-05-07T09:16:07.671Z,6.80
2018-05-07T09:18:35.302Z,3.53
2018-05-07T09:21:04.136Z,3.60
2018-05-07T09:23:32.450Z,3.97
2018-05-07T09:26:00.264Z,4.40
2018-05-07T09:28:28.831Z,4.90
2018-05-07T09:30:56.410Z,4.60
2018-05-07T09:33:24.815Z,4.60
2018-05-07T09:35:52.440Z,5.83
2018-05-07T09:38:20.036Z,3.00
2018-05-07T09:40:47.849Z,6.70
2018-05-07T09:43:15.493Z,6.00
2018-05-07T09:45:43.241Z,4.23
2018-05-07T09:48:11.330Z,5.67
2018-05-07T09:50:39.050Z,3.80
2018-05-07T09:53:06.874Z,3.50
2018-05-07T09:55:34.430Z,5.80
2018-05-07T09:58:03.885Z,4.43
2018-05-07T10:00:37.322Z,3.43
2018-05-07T10:03:04.946Z,2.70
2018-05-07T10:05:32.556Z,3.27
2018-05-07T10:08:00.364Z,6.00
2018-05-07T10:10:27.987Z,4.00
2018-05-07T10:12:55.650Z,4.03
2018-05-07T10:15:23.263Z,4.27
2018-05-07T10:17:51.151Z,4.50
2018-05-07T10:20:18.901Z,2.63
2018-05-07T10:22:46.811Z,3.50
2018-05-07T10:25:15.015Z,5.00
2018-05-07T10:27:43.031Z,4.40
2018-05-07T10:30:10.715Z,4.67
2018-05-07T10:32:38.253Z,4.60
2018-05-07T10:35:06.832Z,5.20
2018-05-07T10:37:37.274Z,6.00
2018-05-07T10:40:04.951Z,3.60
2018-05-07T10:42:33.929Z,3.00
2018-05-07T10:45:03.154Z,4.90
2018-05-07T10:47:30.940Z,4.97
2018-05-07T10:49:58.743Z,4.77
2018-05-07T10:52:27.256Z,3.70
2018-05-07T10:54:56.073Z,4.20
2018-05-07T10:57:23.712Z,3.20
2018-05-07T10:59:51.673Z,4.50
2018-05-07T11:02:19.239Z,5.33
2018-05-07T11:04:46.815Z,8.83
2018-05-07T11:07:14.562Z,6.60
2018-05-07T11:09:42.138Z,4.80
2018-05-07T11:12:11.324Z,3.80
2018-05-07T11:14:38.986Z,4.63
2018-05-07T11:17:06.592Z,3.80
2018-05-07T11:19:35.080Z,4.83
2018-05-07T11:22:02.708Z,4.00
2018-05-07T11:24:30.852Z,3.07
2018-05-07T11:26:59.165Z,4.10
2018-05-07T11:29:26.707Z,4.23
2018-05-07T11:31:55.913Z,5.13
2018-05-07T11:34:23.895Z,4.37
2018-05-07T11:36:51.644Z,5.10
2018-05-07T11:39:19.296Z,3.43
2018-05-07T11:41:54.527Z,3.30
2018-05-07T11:44:23.762Z,3.90
2018-05-07T11:46:59.811Z,3.63
2018-05-07T11:49:30.224Z,2.83
2018-05-07T11:51:57.789Z,4.80
2018-05-07T11:54:25.479Z,3.83
2018-05-07T11:56:53.765Z,3.40
2018-05-07T11:59:22.885Z,5.57
2018-05-07T12:01:52.964Z,3.10
2018-05-07T12:04:22.641Z,3.27
2018-05-07T12:06:50.967Z,2.70
2018-05-07T12:09:18.507Z,4.63
2018-05-07T12:11:46.077Z,3.60
2018-05-07T12:14:13.687Z,4.10
2018-05-07T12:16:43.382Z,6.80
2018-05-07T12:19:11.698Z,5.27
2018-05-07T12:21:39.380Z,4.13
2018-05-07T12:24:06.936Z,3.27
2018-05-07T12:26:34.474Z,4.60
2018-05-07T12:29:02.758Z,6.73
2018-05-07T12:31:30.655Z,2.40
2018-05-07T12:33:58.243Z,4.90
2018-05-07T12:36:25.829Z,4.87
2018-05-07T12:38:54.124Z,2.70
2018-05-07T12:41:22.505Z,4.10
2018-05-07T12:43:50.098Z,4.67
2018-05-07T12:46:17.740Z,4.77
2018-05-07T12:48:45.396Z,4.73
2018-05-07T12:51:12.978Z,4.27
2018-05-07T12:53:42.197Z,5.47
2018-05-07T12:56:11.372Z,3.53
2018-05-07T12:58:39.840Z,4.00
2018-05-07T13:01:08.209Z,3.87
2018-05-07T13:03:36.449Z,4.73
2018-05-07T13:06:04.781Z,3.17
2018-05-07T13:08:32.356Z,3.33
2018-05-07T13:10:59.906Z,4.67
2018-05-07T13:13:28.218Z,5.67
2018-05-07T13:15:57.394Z,7.30
2018-05-07T13:18:27.495Z,2.87
2018-05-07T13:20:57.752Z,6.00
2018-05-07T13:23:26.112Z,4.23
2018-05-07T13:25:53.677Z,3.50
2018-05-07T13:28:21.231Z,4.77
2018-05-07T13:30:48.809Z,5.60
2018-05-07T13:33:17.153Z,5.33
2018-05-07T13:35:45.468Z,6.53
2018-05-07T13:38:13.917Z,6.43
2018-05-07T13:40:42.289Z,4.53
2018-05-07T13:43:10.048Z,2.77
2018-05-07T13:45:37.603Z,2.97
2018-05-07T13:48:05.206Z,2.33
2018-05-07T13:50:32.760Z,6.47
2018-05-07T13:53:00.352Z,2.97
2018-05-07T13:55:27.952Z,3.67
2018-05-07T13:57:55.596Z,3.60
2018-05-07T14:00:23.172Z,5.13
2018-05-07T14:02:50.817Z,2.93
2018-05-07T14:05:18.401Z,2.50
2018-05-07T14:07:45.972Z,2.27
2018-05-07T14:10:13.537Z,3.03
2018-05-07T14:12:41.123Z,5.53
2018-05-07T14:15:08.680Z,3.13
2018-05-07T14:17:37.004Z,3.87
2018-05-07T14:20:04.647Z,5.67
2018-05-07T14:22:32.215Z,3.80
2018-05-07T14:24:59.770Z,4.07
2018-05-07T14:27:28.286Z,2.50
2018-05-07T14:29:55.880Z,4.10
2018-05-07T14:32:23.462Z,2.37
2018-05-07T14:34:51.120Z,3.60
2018-05-07T14:37:18.675Z,4.07
2018-05-07T14:39:46.323Z,3.77
2018-05-07T14:42:14.617Z,3.87
2018-05-07T14:44:42.269Z,2.43
2018-05-07T14:47:09.929Z,3.40
2018-05-07T14:49:37.503Z,2.63
2018-05-07T14:52:05.105Z,4.93
2018-05-07T14:54:33.274Z,2.20
2018-05-07T14:57:00.840Z,4.17
2018-05-07T14:59:28.421Z,2.40
2018-05-07T15:01:56.765Z,5.67
2018-05-07T15:04:24.304Z,2.50
2018-05-07T15:06:51.834Z,3.03
2018-05-07T15:09:19.394Z,2.27
2018-05-07T15:11:46.963Z,2.43
2018-05-07T15:14:23.271Z,4.37
2018-05-07T15:16:50.855Z,4.47
2018-05-07T15:19:19.198Z,2.27
2018-05-07T15:21:46.730Z,2.40
2018-05-07T15:24:14.791Z,2.40
2018-05-07T15:26:42.384Z,4.27
2018-05-07T15:29:10.046Z,2.60
2018-05-07T15:31:37.596Z,2.67
2018-05-07T15:34:05.193Z,4.27
2018-05-07T15:36:33.481Z,5.17
2018-05-07T15:39:01.041Z,2.67
2018-05-07T15:41:28.588Z,4.33
2018-05-07T15:43:56.168Z,2.20
2018-05-07T15:46:23.683Z,4.93
2018-05-07T15:48:51.282Z,4.50
2018-05-07T15:51:19.670Z,2.80
2018-05-07T15:53:48.026Z,4.23
2018-05-07T15:56:15.700Z,2.93
2018-05-07T15:58:44.069Z,2.93
2018-05-07T16:01:12.408Z,2.20
2018-05-07T16:03:39.971Z,3.33
2018-05-07T16:06:07.579Z,2.10
2018-05-07T16:08:35.933Z,5.20
2018-05-07T16:11:03.468Z,5.20
2018-05-07T16:13:31.025Z,4.63
2018-05-07T16:15:58.620Z,6.77
2018-05-07T16:18:26.151Z,5.37
2018-05-07T16:20:53.722Z,2.97
2018-05-07T16:23:21.449Z,3.97
2018-05-07T16:25:48.934Z,4.47
2018-05-07T16:28:16.651Z,2.20
2018-05-07T16:30:44.021Z,3.43
2018-05-07T16:33:11.580Z,2.80
2018-05-07T16:35:39.224Z,2.53
2018-05-07T16:38:06.672Z,3.30
2018-05-07T16:40:34.982Z,2.80
2018-05-07T16:43:02.568Z,2.60
2018-05-07T16:45:30.220Z,2.23
2018-05-07T16:47:57.821Z,4.00
2018-05-07T16:50:27.024Z,3.77
2018-05-07T16:52:55.495Z,2.13
2018-05-07T16:55:22.913Z,2.50
2018-05-07T16:57:50.477Z,1.97
2018-05-07T17:00:18.028Z,2.77
2018-05-07T17:02:45.587Z,2.37
2018-05-07T17:05:13.152Z,2.67
2018-05-07T17:07:40.722Z,1.70
2018-05-07T17:10:08.248Z,3.27
2018-05-07T17:12:35.826Z,2.00
2018-05-07T17:15:03.375Z,2.27
2018-05-07T17:17:30.993Z,2.93
2018-05-07T17:19:58.533Z,5.13
2018-05-07T17:22:26.173Z,3.63
2018-05-07T17:24:53.799Z,5.53
2018-05-07T17:27:21.380Z,2.13
2018-05-07T17:29:48.947Z,3.33
2018-05-07T17:32:16.544Z,3.07
2018-05-07T17:34:44.885Z,2.43
2018-05-07T17:37:12.471Z,2.67
2018-05-07T17:39:40.102Z,2.00
2018-05-07T17:42:07.806Z,3.80
2018-05-07T17:44:48.102Z,2.43
2018-05-07T17:47:37.476Z,2.17
2018-05-07T17:50:05.075Z,3.03
2018-05-07T17:52:32.639Z,2.20
2018-05-07T17:55:00.250Z,5.33
2018-05-07T17:57:27.850Z,3.67
2018-05-07T17:59:55.495Z,4.13
2018-05-07T18:02:23.038Z,3.67
2018-05-07T18:04:50.687Z,3.47
2018-05-07T18:07:18.285Z,3.33
2018-05-07T18:09:45.846Z,8.17
2018-05-07T18:12:13.504Z,4.23
2018-05-07T18:14:41.180Z,4.17
2018-05-07T18:17:09.539Z,4.07
2018-05-07T18:19:37.137Z,5.43
2018-05-07T18:22:05.463Z,3.10
2018-05-07T18:24:33.037Z,3.47
2018-05-07T18:27:00.615Z,4.70
2018-05-07T18:29:28.178Z,5.33
2018-05-07T18:31:55.697Z,3.87
2018-05-07T18:34:24.040Z,5.37
2018-05-07T18:36:52.392Z,5.27
2018-05-07T18:39:19.966Z,5.83
2018-05-07T18:41:47.572Z,6.63
2018-05-07T18:44:15.114Z,6.70
2018-05-07T18:46:43.268Z,5.70
2018-05-07T18:49:11.613Z,3.27
2018-05-07T18:51:39.163Z,3.60
2018-05-07T18:54:06.711Z,7.20
2018-05-07T18:56:34.272Z,6.60
2018-05-07T18:59:01.831Z,8.80
2018-05-07T19:01:29.377Z,6.00
2018-05-07T19:03:56.916Z,6.50
2018-05-07T19:06:25.232Z,5.10
2018-05-07T19:08:52.794Z,3.90
2018-05-07T19:11:21.180Z,6.10
2018-05-07T19:13:48.817Z,4.60
2018-05-07T19:16:16.368Z,5.87
2018-05-07T19:18:43.924Z,6.30
2018-05-07T19:21:11.467Z,6.37
2018-05-07T19:23:39.881Z,7.27
2018-05-07T19:26:07.450Z,6.27
2018-05-07T19:28:35.011Z,6.83
2018-05-07T19:31:02.549Z,7.67
2018-05-07T19:33:30.096Z,5.37
2018-05-07T19:35:57.662Z,5.73
2018-05-07T19:38:25.974Z,6.30
2018-05-07T19:40:53.532Z,5.27
2018-05-07T19:43:21.076Z,5.87
2018-05-07T19:45:48.630Z,4.23
2018-05-07T19:48:16.190Z,4.37
2018-05-07T19:50:43.737Z,5.90
2018-05-07T19:53:11.342Z,5.77
2018-05-07T19:55:38.985Z,8.70
2018-05-07T19:58:07.276Z,3.87
2018-05-07T20:00:34.932Z,7.10
2018-05-07T20:03:03.271Z,5.60
2018-05-07T20:05:30.778Z,5.83
2018-05-07T20:07:58.346Z,7.20
2018-05-07T20:10:25.909Z,3.50
2018-05-07T20:12:53.476Z,9.70
2018-05-07T20:15:21.796Z,5.43
2018-05-07T20:17:49.370Z,5.77
2018-05-07T20:20:16.905Z,6.70
2018-05-07T20:22:45.225Z,3.30
2018-05-07T20:25:12.833Z,5.67
2018-05-07T20:27:40.388Z,3.73
2018-05-07T20:30:08.409Z,3.60
2018-05-07T20:32:35.984Z,6.50
2018-05-07T20:35:03.565Z,7.23
2018-05-07T20:37:31.980Z,7.80
2018-05-07T20:39:59.461Z,10.20
2018-05-07T20:42:27.030Z,7.97
2018-05-07T20:44:54.638Z,6.40
2018-05-07T20:47:22.243Z,8.30
2018-05-07T20:49:49.791Z,5.27
2018-05-07T20:52:17.367Z,7.40
2018-05-07T20:54:44.940Z,5.87
2018-05-07T20:57:14.072Z,5.87
2018-05-07T20:59:41.630Z,6.73
2018-05-07T21:02:09.230Z,11.07
2018-05-07T21:04:36.890Z,9.20
2018-05-07T21:07:05.242Z,6.13
2018-05-07T21:09:32.795Z,8.73
2018-05-07T21:12:00.360Z,10.17
2018-05-07T21:14:27.931Z,6.87
2018-05-07T21:16:55.507Z,7.30
2018-05-07T21:19:23.104Z,6.27
2018-05-07T21:21:51.443Z,11.60
2018-05-07T21:24:19.040Z,5.40
2018-05-07T21:26:47.342Z,4.93
2018-05-07T21:29:14.922Z,4.43
2018-05-07T21:31:42.472Z,7.07
2018-05-07T21:34:10.054Z,5.73
2018-05-07T21:36:38.237Z,7.60
2018-05-07T21:39:06.650Z,5.83
2018-05-07T21:41:34.990Z,4.90
2018-05-07T21:44:02.549Z,6.90
2018-05-07T21:46:30.115Z,6.27
2018-05-07T21:48:57.697Z,9.13
2018-05-07T21:51:26.703Z,6.03
2018-05-07T21:53:54.278Z,5.60
2018-05-07T21:56:21.935Z,4.57
2018-05-07T21:58:49.527Z,4.70
2018-05-07T22:01:17.086Z,5.30
2018-05-07T22:03:44.628Z,5.37
2018-05-07T22:06:12.208Z,4.87
2018-05-07T22:08:39.800Z,6.03
2018-05-07T22:11:07.348Z,6.80
2018-05-07T22:13:35.052Z,5.33
2018-05-07T22:16:02.594Z,5.87
2018-05-07T22:18:30.139Z,4.87
2018-05-07T22:20:58.279Z,6.53
2018-05-07T22:23:25.886Z,8.07
2018-05-07T22:25:54.219Z,6.60
2018-05-07T22:28:21.728Z,6.27
2018-05-07T22:30:50.095Z,7.43
2018-05-07T22:33:17.665Z,6.10
2018-05-07T22:35:45.718Z,8.40
2018-05-07T22:38:13.366Z,9.23
2018-05-07T22:40:40.923Z,7.63
2018-05-07T22:43:08.497Z,4.27
2018-05-07T22:45:36.738Z,4.90
2018-05-07T22:48:04.257Z,4.50
2018-05-07T22:50:32.587Z,7.53
2018-05-07T22:53:00.193Z,6.57
2018-05-07T22:55:27.833Z,5.73
2018-05-07T22:57:56.163Z,4.53
2018-05-07T23:00:23.785Z,7.13
2018-05-07T23:02:52.750Z,5.70
2018-05-07T23:05:20.354Z,7.77
2018-05-07T23:07:47.896Z,5.93
2018-05-07T23:10:16.228Z,6.73
2018-05-07T23:12:43.775Z,7.57
2018-05-07T23:15:11.399Z,5.47
2018-05-07T23:17:38.945Z,6.30
2018-05-07T23:20:07.361Z,7.30
2018-05-07T23:22:34.990Z,6.53
2018-05-07T23:25:03.295Z,5.10
2018-05-07T23:27:30.926Z,5.87
2018-05-07T23:29:59.240Z,8.97
2018-05-07T23:32:27.684Z,6.70
2018-05-07T23:34:56.032Z,7.60
2018-05-07T23:37:23.630Z,5.60
2018-05-07T23:39:51.196Z,6.03
2018-05-07T23:42:18.788Z,6.40
2018-05-07T23:44:46.358Z,5.80
2018-05-07T23:47:13.908Z,5.30
2018-05-07T23:49:41.445Z,10.07
2018-05-07T23:52:09.005Z,7.13
2018-05-07T23:54:37.338Z,6.73
2018-05-07T23:57:06.378Z,5.27
2018-05-07T23:59:33.936Z,9.00
